Disclaimer

Please do not use the information listed here in-flight or in-navigation, as they are not provided to us by the airports but are provided by volunteers, so they might be outdated.

Search


Regions


Airport information page

Radio informations:
Tower (TWR) - 122.9 MHz
RDO - 2923 MHz
GCA - 118.3 MHz
Automatic Terminal Information Service (ATIS) - 126.7 MHz
CHERAT APP - 125.6 MHz

Airport informations:
Latitude: 33° 59' 38.08" N
Longitude: 071° 30' 52.49" E
Elevation: 1158 feet - 353 meters
Operating hours: Remarks
Operating agency: Military-civil joint use airport
Timezone: UTC+5
Fuel: N/A

Runway information:
17/35 - 9000 x 150 feet< - >2743 x 46 meters

Recent METARs:
OPPS 182330Z 31004KT 4000 HZ SCT100 SCT200 14/09 Q1017
OPPS 190000Z 31004KT 4000 HZ SCT100 SCT200 14/09 Q1017
OPPS 190030Z 31004KT 4000 HZ SCT100 SCT200 14/09 Q1017

Airport on the map: